sensor_id;sensor_type;location;lat;lon;timestamp;P1;durP1;ratioP1;P2;durP2;ratioP2
71413;SDS011;59226;53.212;5.728;2022-07-29T00:02:06;0.73;;;0.40;;
71413;SDS011;59226;53.212;5.728;2022-07-29T00:04:33;0.57;;;0.20;;
71413;SDS011;59226;53.212;5.728;2022-07-29T00:06:59;0.60;;;0.30;;
71413;SDS011;59226;53.212;5.728;2022-07-29T00:09:24;0.70;;;0.20;;
71413;SDS011;59226;53.212;5.728;2022-07-29T00:11:49;2.10;;;0.40;;
71413;SDS011;59226;53.212;5.728;2022-07-29T00:14:14;0.60;;;0.43;;
71413;SDS011;59226;53.212;5.728;2022-07-29T00:16:40;0.37;;;0.20;;
71413;SDS011;59226;53.212;5.728;2022-07-29T00:19:05;0.67;;;0.40;;
71413;SDS011;59226;53.212;5.728;2022-07-29T00:21:30;2.73;;;0.40;;
71413;SDS011;59226;53.212;5.728;2022-07-29T00:23:55;0.70;;;0.30;;
71413;SDS011;59226;53.212;5.728;2022-07-29T00:26:21;0.70;;;0.30;;
71413;SDS011;59226;53.212;5.728;2022-07-29T00:28:46;2.27;;;0.60;;
71413;SDS011;59226;53.212;5.728;2022-07-29T00:31:11;0.93;;;0.30;;
71413;SDS011;59226;53.212;5.728;2022-07-29T00:33:37;0.83;;;0.40;;
71413;SDS011;59226;53.212;5.728;2022-07-29T00:36:02;0.67;;;0.50;;
71413;SDS011;59226;53.212;5.728;2022-07-29T00:38:27;0.20;;;0.20;;
71413;SDS011;59226;53.212;5.728;2022-07-29T00:40:53;0.40;;;0.30;;
71413;SDS011;59226;53.212;5.728;2022-07-29T00:43:18;1.77;;;0.60;;
71413;SDS011;59226;53.212;5.728;2022-07-29T00:45:43;0.40;;;0.20;;
71413;SDS011;59226;53.212;5.728;2022-07-29T00:48:08;2.60;;;0.70;;
71413;SDS011;59226;53.212;5.728;2022-07-29T00:50:34;1.13;;;0.43;;
71413;SDS011;59226;53.212;5.728;2022-07-29T00:53:00;0.50;;;0.20;;
71413;SDS011;59226;53.212;5.728;2022-07-29T00:55:25;0.73;;;0.50;;
71413;SDS011;59226;53.212;5.728;2022-07-29T00:57:51;0.77;;;0.40;;
71413;SDS011;59226;53.212;5.728;2022-07-29T01:00:18;0.80;;;0.45;;
71413;SDS011;59226;53.212;5.728;2022-07-29T01:02:44;0.20;;;0.20;;
71413;SDS011;59226;53.212;5.728;2022-07-29T01:05:10;0.22;;;0.20;;
71413;SDS011;59226;53.212;5.728;2022-07-29T01:07:36;1.47;;;0.30;;
71413;SDS011;59226;53.212;5.728;2022-07-29T01:10:03;0.15;;;0.10;;
71413;SDS011;59226;53.212;5.728;2022-07-29T01:12:29;5.35;;;0.40;;
71413;SDS011;59226;53.212;5.728;2022-07-29T01:14:57;0.20;;;0.20;;
71413;SDS011;59226;53.212;5.728;2022-07-29T01:30:30;0.95;;;0.30;;
71413;SDS011;59226;53.212;5.728;2022-07-29T01:32:59;1.30;;;0.32;;
71413;SDS011;59226;53.212;5.728;2022-07-29T01:35:26;0.30;;;0.30;;
71413;SDS011;59226;53.212;5.728;2022-07-29T01:40:36;0.40;;;0.25;;
71413;SDS011;59226;53.212;5.728;2022-07-29T01:43:03;1.48;;;0.40;;
71413;SDS011;59226;53.212;5.728;2022-07-29T01:45:37;12.15;;;0.50;;
71413;SDS011;59226;53.212;5.728;2022-07-29T01:48:10;1.98;;;0.30;;
71413;SDS011;59226;53.212;5.728;2022-07-29T01:51:23;0.80;;;0.60;;
71413;SDS011;59226;53.212;5.728;2022-07-29T01:53:33;0.60;;;0.30;;
71413;SDS011;59226;53.212;5.728;2022-07-29T01:55:59;2.08;;;0.55;;
71413;SDS011;59226;53.212;5.728;2022-07-29T01:58:25;0.47;;;0.15;;
71413;SDS011;59226;53.212;5.728;2022-07-29T02:00:51;0.60;;;0.40;;
71413;SDS011;59226;53.212;5.728;2022-07-29T02:03:17;0.40;;;0.20;;
71413;SDS011;59226;53.212;5.728;2022-07-29T02:05:43;0.75;;;0.40;;
71413;SDS011;59226;53.212;5.728;2022-07-29T02:08:10;0.40;;;0.20;;
71413;SDS011;59226;53.212;5.728;2022-07-29T02:10:36;3.60;;;0.85;;
71413;SDS011;59226;53.212;5.728;2022-07-29T02:13:02;0.60;;;0.20;;
71413;SDS011;59226;53.212;5.728;2022-07-29T02:15:29;0.68;;;0.30;;
71413;SDS011;59226;53.212;5.728;2022-07-29T02:17:56;1.45;;;0.40;;
71413;SDS011;59226;53.212;5.728;2022-07-29T02:20:23;1.17;;;0.45;;
71413;SDS011;59226;53.212;5.728;2022-07-29T02:22:49;2.43;;;0.30;;
71413;SDS011;59226;53.212;5.728;2022-07-29T02:25:15;1.50;;;0.60;;
71413;SDS011;59226;53.212;5.728;2022-07-29T02:27:41;0.30;;;0.28;;
71413;SDS011;59226;53.212;5.728;2022-07-29T02:30:07;3.28;;;0.60;;
71413;SDS011;59226;53.212;5.728;2022-07-29T02:32:35;0.90;;;0.40;;
71413;SDS011;59226;53.212;5.728;2022-07-29T02:35:02;0.77;;;0.30;;
71413;SDS011;59226;53.212;5.728;2022-07-29T02:37:27;3.55;;;0.55;;
71413;SDS011;59226;53.212;5.728;2022-07-29T02:39:54;0.55;;;0.30;;
71413;SDS011;59226;53.212;5.728;2022-07-29T02:42:20;1.73;;;0.70;;
71413;SDS011;59226;53.212;5.728;2022-07-29T02:44:46;2.72;;;1.10;;
71413;SDS011;59226;53.212;5.728;2022-07-29T02:47:27;0.50;;;0.30;;
71413;SDS011;59226;53.212;5.728;2022-07-29T02:50:06;1.75;;;0.50;;
71413;SDS011;59226;53.212;5.728;2022-07-29T02:52:40;2.15;;;0.60;;
71413;SDS011;59226;53.212;5.728;2022-07-29T02:55:16;0.30;;;0.20;;
71413;SDS011;59226;53.212;5.728;2022-07-29T02:57:51;0.40;;;0.22;;
71413;SDS011;59226;53.212;5.728;2022-07-29T03:00:19;1.30;;;0.50;;
71413;SDS011;59226;53.212;5.728;2022-07-29T03:02:45;2.15;;;0.50;;
71413;SDS011;59226;53.212;5.728;2022-07-29T03:05:18;0.47;;;0.30;;
71413;SDS011;59226;53.212;5.728;2022-07-29T03:07:45;0.65;;;0.40;;
71413;SDS011;59226;53.212;5.728;2022-07-29T03:10:11;0.93;;;0.40;;
71413;SDS011;59226;53.212;5.728;2022-07-29T03:12:36;0.60;;;0.40;;
71413;SDS011;59226;53.212;5.728;2022-07-29T03:15:02;2.33;;;0.43;;
71413;SDS011;59226;53.212;5.728;2022-07-29T03:17:27;0.20;;;0.13;;
71413;SDS011;59226;53.212;5.728;2022-07-29T03:19:54;0.70;;;0.30;;
71413;SDS011;59226;53.212;5.728;2022-07-29T03:22:20;0.90;;;0.40;;
71413;SDS011;59226;53.212;5.728;2022-07-29T03:24:45;2.00;;;0.63;;
71413;SDS011;59226;53.212;5.728;2022-07-29T03:27:11;0.50;;;0.27;;
71413;SDS011;59226;53.212;5.728;2022-07-29T03:29:36;0.97;;;0.40;;
71413;SDS011;59226;53.212;5.728;2022-07-29T03:32:02;0.47;;;0.20;;
71413;SDS011;59226;53.212;5.728;2022-07-29T03:34:28;0.50;;;0.30;;
71413;SDS011;59226;53.212;5.728;2022-07-29T03:36:53;0.87;;;0.40;;
71413;SDS011;59226;53.212;5.728;2022-07-29T03:39:20;1.00;;;0.40;;
71413;SDS011;59226;53.212;5.728;2022-07-29T03:41:47;1.67;;;0.65;;
71413;SDS011;59226;53.212;5.728;2022-07-29T03:44:13;2.60;;;0.50;;
71413;SDS011;59226;53.212;5.728;2022-07-29T03:46:40;0.70;;;0.30;;
71413;SDS011;59226;53.212;5.728;2022-07-29T03:49:06;1.47;;;0.40;;
71413;SDS011;59226;53.212;5.728;2022-07-29T03:51:33;1.52;;;0.40;;
71413;SDS011;59226;53.212;5.728;2022-07-29T03:53:58;1.75;;;0.50;;
71413;SDS011;59226;53.212;5.728;2022-07-29T03:56:24;0.30;;;0.30;;
71413;SDS011;59226;53.212;5.728;2022-07-29T03:58:50;0.83;;;0.40;;
71413;SDS011;59226;53.212;5.728;2022-07-29T04:01:16;1.75;;;0.57;;
71413;SDS011;59226;53.212;5.728;2022-07-29T04:03:43;0.90;;;0.32;;
71413;SDS011;59226;53.212;5.728;2022-07-29T04:06:10;1.02;;;0.45;;
71413;SDS011;59226;53.212;5.728;2022-07-29T04:08:35;1.60;;;0.23;;
71413;SDS011;59226;53.212;5.728;2022-07-29T04:11:01;7.73;;;0.50;;
71413;SDS011;59226;53.212;5.728;2022-07-29T04:13:26;1.10;;;0.50;;
71413;SDS011;59226;53.212;5.728;2022-07-29T04:15:51;0.95;;;0.40;;
71413;SDS011;59226;53.212;5.728;2022-07-29T04:18:17;0.53;;;0.30;;
71413;SDS011;59226;53.212;5.728;2022-07-29T04:20:42;1.20;;;0.47;;
71413;SDS011;59226;53.212;5.728;2022-07-29T04:23:07;1.80;;;0.40;;
71413;SDS011;59226;53.212;5.728;2022-07-29T04:25:32;0.30;;;0.20;;
71413;SDS011;59226;53.212;5.728;2022-07-29T04:27:57;0.20;;;0.20;;
71413;SDS011;59226;53.212;5.728;2022-07-29T04:30:26;1.33;;;0.30;;
71413;SDS011;59226;53.212;5.728;2022-07-29T04:32:51;0.83;;;0.30;;
71413;SDS011;59226;53.212;5.728;2022-07-29T04:35:17;1.00;;;0.30;;
71413;SDS011;59226;53.212;5.728;2022-07-29T04:37:42;0.27;;;0.20;;
71413;SDS011;59226;53.212;5.728;2022-07-29T04:40:08;0.90;;;0.47;;
71413;SDS011;59226;53.212;5.728;2022-07-29T04:42:33;0.95;;;0.30;;
71413;SDS011;59226;53.212;5.728;2022-07-29T04:44:58;0.37;;;0.20;;
71413;SDS011;59226;53.212;5.728;2022-07-29T04:47:23;0.40;;;0.27;;
71413;SDS011;59226;53.212;5.728;2022-07-29T04:49:48;0.53;;;0.30;;
71413;SDS011;59226;53.212;5.728;2022-07-29T04:52:14;0.93;;;0.60;;
71413;SDS011;59226;53.212;5.728;2022-07-29T04:54:39;0.93;;;0.50;;
71413;SDS011;59226;53.212;5.728;2022-07-29T04:57:04;0.50;;;0.30;;
71413;SDS011;59226;53.212;5.728;2022-07-29T04:59:29;1.67;;;0.60;;
71413;SDS011;59226;53.212;5.728;2022-07-29T05:01:55;0.63;;;0.37;;
71413;SDS011;59226;53.212;5.728;2022-07-29T05:04:20;0.30;;;0.20;;
71413;SDS011;59226;53.212;5.728;2022-07-29T05:06:45;1.90;;;0.40;;
71413;SDS011;59226;53.212;5.728;2022-07-29T05:09:10;1.30;;;0.70;;
71413;SDS011;59226;53.212;5.728;2022-07-29T05:11:35;0.73;;;0.40;;
71413;SDS011;59226;53.212;5.728;2022-07-29T05:14:01;1.43;;;0.67;;
71413;SDS011;59226;53.212;5.728;2022-07-29T05:16:26;6.10;;;0.43;;
71413;SDS011;59226;53.212;5.728;2022-07-29T05:18:51;0.20;;;0.20;;
71413;SDS011;59226;53.212;5.728;2022-07-29T05:21:16;0.50;;;0.33;;
71413;SDS011;59226;53.212;5.728;2022-07-29T05:23:42;0.20;;;0.20;;
71413;SDS011;59226;53.212;5.728;2022-07-29T05:26:07;0.17;;;0.17;;
71413;SDS011;59226;53.212;5.728;2022-07-29T05:28:35;1.43;;;0.50;;
71413;SDS011;59226;53.212;5.728;2022-07-29T05:31:00;1.13;;;0.30;;
71413;SDS011;59226;53.212;5.728;2022-07-29T05:33:25;0.63;;;0.33;;
71413;SDS011;59226;53.212;5.728;2022-07-29T05:35:50;3.03;;;0.40;;
71413;SDS011;59226;53.212;5.728;2022-07-29T05:38:16;0.40;;;0.20;;
71413;SDS011;59226;53.212;5.728;2022-07-29T05:40:41;1.03;;;0.33;;
71413;SDS011;59226;53.212;5.728;2022-07-29T05:43:06;0.43;;;0.27;;
71413;SDS011;59226;53.212;5.728;2022-07-29T05:45:31;1.13;;;0.30;;
71413;SDS011;59226;53.212;5.728;2022-07-29T05:47:57;0.70;;;0.30;;
71413;SDS011;59226;53.212;5.728;2022-07-29T05:50:22;1.53;;;0.50;;
71413;SDS011;59226;53.212;5.728;2022-07-29T05:52:47;0.30;;;0.30;;
71413;SDS011;59226;53.212;5.728;2022-07-29T05:55:12;0.37;;;0.20;;
71413;SDS011;59226;53.212;5.728;2022-07-29T05:57:38;0.90;;;0.40;;
71413;SDS011;59226;53.212;5.728;2022-07-29T06:00:03;1.07;;;0.40;;
71413;SDS011;59226;53.212;5.728;2022-07-29T06:02:28;0.63;;;0.30;;
71413;SDS011;59226;53.212;5.728;2022-07-29T06:04:54;2.63;;;0.30;;
71413;SDS011;59226;53.212;5.728;2022-07-29T06:07:19;0.67;;;0.60;;
71413;SDS011;59226;53.212;5.728;2022-07-29T06:09:44;9.90;;;0.60;;
71413;SDS011;59226;53.212;5.728;2022-07-29T06:12:09;0.63;;;0.30;;
71413;SDS011;59226;53.212;5.728;2022-07-29T06:14:35;0.73;;;0.20;;
71413;SDS011;59226;53.212;5.728;2022-07-29T06:17:00;0.53;;;0.30;;
71413;SDS011;59226;53.212;5.728;2022-07-29T06:19:25;0.37;;;0.23;;
71413;SDS011;59226;53.212;5.728;2022-07-29T06:21:51;0.20;;;0.20;;
71413;SDS011;59226;53.212;5.728;2022-07-29T06:24:16;4.00;;;0.53;;
71413;SDS011;59226;53.212;5.728;2022-07-29T06:26:42;0.97;;;0.50;;
71413;SDS011;59226;53.212;5.728;2022-07-29T06:29:07;0.60;;;0.20;;
71413;SDS011;59226;53.212;5.728;2022-07-29T06:31:33;1.07;;;0.40;;
71413;SDS011;59226;53.212;5.728;2022-07-29T06:33:58;0.70;;;0.30;;
71413;SDS011;59226;53.212;5.728;2022-07-29T06:36:24;1.90;;;0.50;;
71413;SDS011;59226;53.212;5.728;2022-07-29T06:38:49;0.40;;;0.35;;
71413;SDS011;59226;53.212;5.728;2022-07-29T06:41:14;0.37;;;0.20;;
71413;SDS011;59226;53.212;5.728;2022-07-29T06:43:41;0.80;;;0.40;;
71413;SDS011;59226;53.212;5.728;2022-07-29T06:46:08;0.93;;;0.40;;
71413;SDS011;59226;53.212;5.728;2022-07-29T06:48:34;0.45;;;0.20;;
71413;SDS011;59226;53.212;5.728;2022-07-29T06:50:59;1.30;;;0.40;;
71413;SDS011;59226;53.212;5.728;2022-07-29T06:53:26;1.33;;;0.27;;
71413;SDS011;59226;53.212;5.728;2022-07-29T06:55:51;0.60;;;0.40;;
71413;SDS011;59226;53.212;5.728;2022-07-29T06:58:17;0.40;;;0.30;;
71413;SDS011;59226;53.212;5.728;2022-07-29T07:00:45;0.32;;;0.20;;
71413;SDS011;59226;53.212;5.728;2022-07-29T07:03:10;1.13;;;0.43;;
71413;SDS011;59226;53.212;5.728;2022-07-29T07:05:35;0.52;;;0.40;;
71413;SDS011;59226;53.212;5.728;2022-07-29T07:08:01;4.93;;;0.90;;
71413;SDS011;59226;53.212;5.728;2022-07-29T07:10:26;0.30;;;0.30;;
71413;SDS011;59226;53.212;5.728;2022-07-29T07:12:52;0.20;;;0.20;;
71413;SDS011;59226;53.212;5.728;2022-07-29T07:15:17;2.47;;;0.53;;
71413;SDS011;59226;53.212;5.728;2022-07-29T07:17:46;0.20;;;0.20;;
71413;SDS011;59226;53.212;5.728;2022-07-29T07:20:11;0.63;;;0.30;;
71413;SDS011;59226;53.212;5.728;2022-07-29T07:22:37;2.27;;;0.60;;
71413;SDS011;59226;53.212;5.728;2022-07-29T07:25:02;0.97;;;0.50;;
71413;SDS011;59226;53.212;5.728;2022-07-29T07:27:27;10.20;;;0.70;;
71413;SDS011;59226;53.212;5.728;2022-07-29T07:29:53;1.85;;;0.65;;
71413;SDS011;59226;53.212;5.728;2022-07-29T07:32:18;0.30;;;0.20;;
71413;SDS011;59226;53.212;5.728;2022-07-29T07:34:44;0.25;;;0.22;;
71413;SDS011;59226;53.212;5.728;2022-07-29T07:37:09;0.40;;;0.30;;
71413;SDS011;59226;53.212;5.728;2022-07-29T07:39:35;3.60;;;0.30;;
71413;SDS011;59226;53.212;5.728;2022-07-29T07:42:00;0.93;;;0.30;;
71413;SDS011;59226;53.212;5.728;2022-07-29T07:44:25;0.67;;;0.40;;
71413;SDS011;59226;53.212;5.728;2022-07-29T07:46:50;0.93;;;0.73;;
71413;SDS011;59226;53.212;5.728;2022-07-29T07:49:16;1.43;;;0.40;;
71413;SDS011;59226;53.212;5.728;2022-07-29T07:51:41;1.03;;;0.40;;
71413;SDS011;59226;53.212;5.728;2022-07-29T07:54:06;2.40;;;0.40;;
71413;SDS011;59226;53.212;5.728;2022-07-29T07:56:31;1.23;;;0.50;;
71413;SDS011;59226;53.212;5.728;2022-07-29T07:58:57;0.40;;;0.30;;
71413;SDS011;59226;53.212;5.728;2022-07-29T08:01:22;0.60;;;0.40;;
71413;SDS011;59226;53.212;5.728;2022-07-29T08:03:48;1.50;;;0.53;;
71413;SDS011;59226;53.212;5.728;2022-07-29T08:06:14;1.52;;;0.50;;
71413;SDS011;59226;53.212;5.728;2022-07-29T08:08:39;2.73;;;0.40;;
71413;SDS011;59226;53.212;5.728;2022-07-29T08:11:05;0.87;;;0.40;;
71413;SDS011;59226;53.212;5.728;2022-07-29T08:13:31;3.53;;;0.60;;
71413;SDS011;59226;53.212;5.728;2022-07-29T08:15:56;0.47;;;0.30;;
71413;SDS011;59226;53.212;5.728;2022-07-29T08:18:27;0.77;;;0.40;;
71413;SDS011;59226;53.212;5.728;2022-07-29T08:20:52;0.80;;;0.30;;
71413;SDS011;59226;53.212;5.728;2022-07-29T08:23:17;0.50;;;0.40;;
71413;SDS011;59226;53.212;5.728;2022-07-29T08:25:44;0.57;;;0.30;;
71413;SDS011;59226;53.212;5.728;2022-07-29T08:28:09;1.80;;;0.53;;
71413;SDS011;59226;53.212;5.728;2022-07-29T08:30:34;6.07;;;0.50;;
71413;SDS011;59226;53.212;5.728;2022-07-29T08:32:59;0.53;;;0.30;;
71413;SDS011;59226;53.212;5.728;2022-07-29T08:35:25;2.93;;;0.53;;
71413;SDS011;59226;53.212;5.728;2022-07-29T08:37:51;1.77;;;0.40;;
71413;SDS011;59226;53.212;5.728;2022-07-29T08:40:16;1.07;;;0.40;;
71413;SDS011;59226;53.212;5.728;2022-07-29T08:42:41;1.58;;;0.60;;
71413;SDS011;59226;53.212;5.728;2022-07-29T08:45:07;1.20;;;0.70;;
71413;SDS011;59226;53.212;5.728;2022-07-29T08:47:32;1.00;;;0.57;;
71413;SDS011;59226;53.212;5.728;2022-07-29T08:49:58;0.53;;;0.30;;
71413;SDS011;59226;53.212;5.728;2022-07-29T08:52:25;0.77;;;0.40;;
71413;SDS011;59226;53.212;5.728;2022-07-29T08:54:50;0.50;;;0.30;;
71413;SDS011;59226;53.212;5.728;2022-07-29T08:57:17;1.65;;;0.47;;
71413;SDS011;59226;53.212;5.728;2022-07-29T08:59:42;1.53;;;0.87;;
71413;SDS011;59226;53.212;5.728;2022-07-29T09:02:12;2.80;;;1.07;;
71413;SDS011;59226;53.212;5.728;2022-07-29T09:04:40;0.52;;;0.38;;
71413;SDS011;59226;53.212;5.728;2022-07-29T09:07:06;0.20;;;0.20;;
71413;SDS011;59226;53.212;5.728;2022-07-29T09:09:33;1.02;;;0.50;;
71413;SDS011;59226;53.212;5.728;2022-07-29T09:11:58;2.07;;;0.50;;
71413;SDS011;59226;53.212;5.728;2022-07-29T09:14:24;1.55;;;0.65;;
71413;SDS011;59226;53.212;5.728;2022-07-29T09:19:25;2.50;;;0.70;;
71413;SDS011;59226;53.212;5.728;2022-07-29T09:21:50;0.77;;;0.43;;
71413;SDS011;59226;53.212;5.728;2022-07-29T09:26:59;4.30;;;0.60;;
71413;SDS011;59226;53.212;5.728;2022-07-29T09:29:24;2.63;;;0.63;;
71413;SDS011;59226;53.212;5.728;2022-07-29T09:31:51;3.00;;;0.63;;
71413;SDS011;59226;53.212;5.728;2022-07-29T09:34:20;1.73;;;0.90;;
71413;SDS011;59226;53.212;5.728;2022-07-29T09:36:46;0.60;;;0.30;;
71413;SDS011;59226;53.212;5.728;2022-07-29T09:39:12;1.75;;;0.50;;
71413;SDS011;59226;53.212;5.728;2022-07-29T09:44:10;1.00;;;0.60;;
71413;SDS011;59226;53.212;5.728;2022-07-29T09:46:36;0.80;;;0.40;;
71413;SDS011;59226;53.212;5.728;2022-07-29T09:49:11;1.37;;;0.80;;
71413;SDS011;59226;53.212;5.728;2022-07-29T09:51:37;1.00;;;0.50;;
71413;SDS011;59226;53.212;5.728;2022-07-29T09:54:22;1.20;;;0.50;;
71413;SDS011;59226;53.212;5.728;2022-07-29T09:56:48;2.03;;;0.35;;
71413;SDS011;59226;53.212;5.728;2022-07-29T09:59:13;2.57;;;0.70;;
71413;SDS011;59226;53.212;5.728;2022-07-29T10:01:39;5.40;;;0.60;;
71413;SDS011;59226;53.212;5.728;2022-07-29T10:04:04;6.07;;;0.87;;
71413;SDS011;59226;53.212;5.728;2022-07-29T10:06:29;3.80;;;0.63;;
71413;SDS011;59226;53.212;5.728;2022-07-29T10:08:54;1.53;;;0.77;;
71413;SDS011;59226;53.212;5.728;2022-07-29T10:11:20;2.63;;;0.67;;
71413;SDS011;59226;53.212;5.728;2022-07-29T10:13:46;0.90;;;0.45;;
71413;SDS011;59226;53.212;5.728;2022-07-29T10:16:12;1.00;;;0.40;;
71413;SDS011;59226;53.212;5.728;2022-07-29T10:18:38;9.85;;;0.88;;
71413;SDS011;59226;53.212;5.728;2022-07-29T10:21:04;1.05;;;0.55;;
71413;SDS011;59226;53.212;5.728;2022-07-29T10:23:29;0.97;;;0.40;;
71413;SDS011;59226;53.212;5.728;2022-07-29T10:25:55;2.45;;;0.82;;
71413;SDS011;59226;53.212;5.728;2022-07-29T10:28:20;1.53;;;0.70;;
71413;SDS011;59226;53.212;5.728;2022-07-29T10:30:46;1.20;;;0.53;;
71413;SDS011;59226;53.212;5.728;2022-07-29T10:33:17;1.00;;;0.60;;
71413;SDS011;59226;53.212;5.728;2022-07-29T10:43:48;0.60;;;0.40;;
71413;SDS011;59226;53.212;5.728;2022-07-29T10:46:13;1.45;;;0.93;;
71413;SDS011;59226;53.212;5.728;2022-07-29T10:51:23;1.23;;;0.65;;
71413;SDS011;59226;53.212;5.728;2022-07-29T10:53:49;3.77;;;1.03;;
71413;SDS011;59226;53.212;5.728;2022-07-29T10:56:25;3.53;;;1.13;;
71413;SDS011;59226;53.212;5.728;2022-07-29T10:59:36;2.05;;;0.90;;
71413;SDS011;59226;53.212;5.728;2022-07-29T11:01:36;0.77;;;0.53;;
71413;SDS011;59226;53.212;5.728;2022-07-29T11:04:01;1.85;;;0.85;;
71413;SDS011;59226;53.212;5.728;2022-07-29T11:06:58;7.13;;;0.60;;
71413;SDS011;59226;53.212;5.728;2022-07-29T11:09:15;1.00;;;0.63;;
71413;SDS011;59226;53.212;5.728;2022-07-29T11:11:40;1.33;;;0.40;;
71413;SDS011;59226;53.212;5.728;2022-07-29T11:14:06;2.03;;;0.70;;
71413;SDS011;59226;53.212;5.728;2022-07-29T11:16:57;1.53;;;0.50;;
71413;SDS011;59226;53.212;5.728;2022-07-29T11:21:43;1.60;;;0.80;;
71413;SDS011;59226;53.212;5.728;2022-07-29T11:24:12;1.17;;;0.60;;
71413;SDS011;59226;53.212;5.728;2022-07-29T11:26:38;2.35;;;1.05;;
71413;SDS011;59226;53.212;5.728;2022-07-29T11:29:12;0.93;;;0.60;;
71413;SDS011;59226;53.212;5.728;2022-07-29T11:31:40;1.65;;;0.90;;
71413;SDS011;59226;53.212;5.728;2022-07-29T11:34:16;1.73;;;0.60;;
71413;SDS011;59226;53.212;5.728;2022-07-29T11:39:27;3.85;;;0.98;;
71413;SDS011;59226;53.212;5.728;2022-07-29T11:41:52;4.93;;;0.90;;
71413;SDS011;59226;53.212;5.728;2022-07-29T11:44:18;2.17;;;1.10;;
71413;SDS011;59226;53.212;5.728;2022-07-29T11:47:03;1.47;;;0.70;;
71413;SDS011;59226;53.212;5.728;2022-07-29T11:49:29;1.70;;;0.60;;
71413;SDS011;59226;53.212;5.728;2022-07-29T11:51:56;3.57;;;0.77;;
71413;SDS011;59226;53.212;5.728;2022-07-29T11:54:31;8.48;;;1.33;;
71413;SDS011;59226;53.212;5.728;2022-07-29T11:56:59;3.80;;;1.05;;
71413;SDS011;59226;53.212;5.728;2022-07-29T11:59:25;3.70;;;0.70;;
71413;SDS011;59226;53.212;5.728;2022-07-29T12:01:54;7.40;;;1.17;;
71413;SDS011;59226;53.212;5.728;2022-07-29T12:04:19;2.72;;;0.88;;
71413;SDS011;59226;53.212;5.728;2022-07-29T12:06:53;1.73;;;0.83;;
71413;SDS011;59226;53.212;5.728;2022-07-29T12:09:19;1.35;;;0.63;;
71413;SDS011;59226;53.212;5.728;2022-07-29T12:11:45;3.70;;;0.93;;
71413;SDS011;59226;53.212;5.728;2022-07-29T12:14:26;4.53;;;0.70;;
71413;SDS011;59226;53.212;5.728;2022-07-29T12:16:52;3.03;;;0.57;;
71413;SDS011;59226;53.212;5.728;2022-07-29T12:19:17;1.37;;;0.80;;
71413;SDS011;59226;53.212;5.728;2022-07-29T12:21:46;2.00;;;0.70;;
71413;SDS011;59226;53.212;5.728;2022-07-29T12:24:11;14.23;;;1.05;;
71413;SDS011;59226;53.212;5.728;2022-07-29T12:26:38;4.17;;;1.03;;
71413;SDS011;59226;53.212;5.728;2022-07-29T12:29:17;1.83;;;0.90;;
71413;SDS011;59226;53.212;5.728;2022-07-29T12:31:42;0.73;;;0.50;;
71413;SDS011;59226;53.212;5.728;2022-07-29T12:34:08;4.50;;;1.08;;
71413;SDS011;59226;53.212;5.728;2022-07-29T12:36:34;2.17;;;0.80;;
71413;SDS011;59226;53.212;5.728;2022-07-29T12:38:59;6.80;;;0.90;;
71413;SDS011;59226;53.212;5.728;2022-07-29T12:41:24;9.57;;;1.13;;
71413;SDS011;59226;53.212;5.728;2022-07-29T12:43:52;4.28;;;1.30;;
71413;SDS011;59226;53.212;5.728;2022-07-29T12:46:18;2.10;;;0.70;;
71413;SDS011;59226;53.212;5.728;2022-07-29T12:48:43;3.33;;;1.37;;
71413;SDS011;59226;53.212;5.728;2022-07-29T12:51:10;3.33;;;1.55;;
71413;SDS011;59226;53.212;5.728;2022-07-29T12:53:37;1.85;;;0.63;;
71413;SDS011;59226;53.212;5.728;2022-07-29T12:56:03;1.23;;;0.63;;
71413;SDS011;59226;53.212;5.728;2022-07-29T12:58:33;3.00;;;0.80;;
71413;SDS011;59226;53.212;5.728;2022-07-29T13:01:17;2.33;;;0.80;;
71413;SDS011;59226;53.212;5.728;2022-07-29T13:06:26;1.63;;;0.73;;
71413;SDS011;59226;53.212;5.728;2022-07-29T13:08:58;1.67;;;0.70;;
71413;SDS011;59226;53.212;5.728;2022-07-29T13:14:11;1.35;;;0.80;;
71413;SDS011;59226;53.212;5.728;2022-07-29T13:16:37;2.05;;;0.70;;
71413;SDS011;59226;53.212;5.728;2022-07-29T13:19:31;1.67;;;0.80;;
71413;SDS011;59226;53.212;5.728;2022-07-29T13:21:57;2.83;;;1.03;;
71413;SDS011;59226;53.212;5.728;2022-07-29T13:24:22;3.07;;;0.87;;
71413;SDS011;59226;53.212;5.728;2022-07-29T13:26:47;2.23;;;0.90;;
71413;SDS011;59226;53.212;5.728;2022-07-29T13:29:12;6.40;;;1.43;;
71413;SDS011;59226;53.212;5.728;2022-07-29T13:31:37;4.27;;;0.93;;
71413;SDS011;59226;53.212;5.728;2022-07-29T13:34:03;1.77;;;1.00;;
71413;SDS011;59226;53.212;5.728;2022-07-29T13:36:29;3.10;;;1.13;;
71413;SDS011;59226;53.212;5.728;2022-07-29T13:38:54;4.50;;;1.03;;
71413;SDS011;59226;53.212;5.728;2022-07-29T13:41:19;3.53;;;1.17;;
71413;SDS011;59226;53.212;5.728;2022-07-29T13:43:44;5.60;;;1.00;;
71413;SDS011;59226;53.212;5.728;2022-07-29T13:46:10;1.50;;;0.67;;
71413;SDS011;59226;53.212;5.728;2022-07-29T13:48:35;2.13;;;1.00;;
71413;SDS011;59226;53.212;5.728;2022-07-29T13:51:00;3.47;;;0.90;;
71413;SDS011;59226;53.212;5.728;2022-07-29T13:53:25;2.30;;;0.83;;
71413;SDS011;59226;53.212;5.728;2022-07-29T13:55:51;6.97;;;1.33;;
71413;SDS011;59226;53.212;5.728;2022-07-29T13:58:17;3.03;;;0.87;;
71413;SDS011;59226;53.212;5.728;2022-07-29T14:00:42;4.60;;;1.03;;
71413;SDS011;59226;53.212;5.728;2022-07-29T14:03:07;3.90;;;1.30;;
71413;SDS011;59226;53.212;5.728;2022-07-29T14:05:32;2.27;;;1.13;;
71413;SDS011;59226;53.212;5.728;2022-07-29T14:07:58;2.63;;;0.90;;
71413;SDS011;59226;53.212;5.728;2022-07-29T14:10:23;2.97;;;1.33;;
71413;SDS011;59226;53.212;5.728;2022-07-29T14:12:48;2.00;;;0.77;;
71413;SDS011;59226;53.212;5.728;2022-07-29T14:15:13;2.30;;;1.00;;
71413;SDS011;59226;53.212;5.728;2022-07-29T14:17:38;1.97;;;0.80;;
71413;SDS011;59226;53.212;5.728;2022-07-29T14:20:04;5.10;;;1.20;;
71413;SDS011;59226;53.212;5.728;2022-07-29T14:22:29;2.10;;;0.90;;
71413;SDS011;59226;53.212;5.728;2022-07-29T14:24:54;2.97;;;1.07;;
71413;SDS011;59226;53.212;5.728;2022-07-29T14:27:20;3.60;;;1.13;;
71413;SDS011;59226;53.212;5.728;2022-07-29T14:29:45;3.87;;;1.10;;
71413;SDS011;59226;53.212;5.728;2022-07-29T14:32:10;3.40;;;0.97;;
71413;SDS011;59226;53.212;5.728;2022-07-29T14:34:36;3.17;;;1.00;;
71413;SDS011;59226;53.212;5.728;2022-07-29T14:37:02;2.60;;;0.90;;
71413;SDS011;59226;53.212;5.728;2022-07-29T14:39:30;1.30;;;0.87;;
71413;SDS011;59226;53.212;5.728;2022-07-29T14:41:55;8.77;;;2.50;;
71413;SDS011;59226;53.212;5.728;2022-07-29T14:44:20;4.83;;;1.00;;
71413;SDS011;59226;53.212;5.728;2022-07-29T14:46:45;2.07;;;0.80;;
71413;SDS011;59226;53.212;5.728;2022-07-29T14:49:10;2.23;;;1.03;;
71413;SDS011;59226;53.212;5.728;2022-07-29T14:51:36;5.87;;;1.20;;
71413;SDS011;59226;53.212;5.728;2022-07-29T14:54:02;2.23;;;0.83;;
71413;SDS011;59226;53.212;5.728;2022-07-29T14:56:27;2.38;;;1.10;;
71413;SDS011;59226;53.212;5.728;2022-07-29T14:58:54;3.37;;;1.30;;
71413;SDS011;59226;53.212;5.728;2022-07-29T15:01:19;1.75;;;0.95;;
71413;SDS011;59226;53.212;5.728;2022-07-29T15:03:45;2.13;;;0.80;;
71413;SDS011;59226;53.212;5.728;2022-07-29T15:06:10;2.93;;;1.07;;
71413;SDS011;59226;53.212;5.728;2022-07-29T15:08:36;3.90;;;1.60;;
71413;SDS011;59226;53.212;5.728;2022-07-29T15:11:01;4.13;;;1.10;;
71413;SDS011;59226;53.212;5.728;2022-07-29T15:13:27;1.93;;;1.10;;
71413;SDS011;59226;53.212;5.728;2022-07-29T15:15:52;2.33;;;1.00;;
71413;SDS011;59226;53.212;5.728;2022-07-29T15:18:17;1.57;;;0.90;;
71413;SDS011;59226;53.212;5.728;2022-07-29T15:20:42;4.23;;;1.83;;
71413;SDS011;59226;53.212;5.728;2022-07-29T15:23:10;2.13;;;0.98;;
71413;SDS011;59226;53.212;5.728;2022-07-29T15:25:37;2.50;;;1.48;;
71413;SDS011;59226;53.212;5.728;2022-07-29T15:28:02;1.10;;;0.70;;
71413;SDS011;59226;53.212;5.728;2022-07-29T15:30:31;1.45;;;0.77;;